Terminal Aerodrome Forecast
Issued by NWS

Home | Current Version | Previous Version | Text Only | Print | Product List | Glossary On
Versions: 1 2 3 4 5 6 7 8 9 10 11 12 13 14 15 16 17 18 19 20 21 22 23 24 25 26 27 28 29 30 31 32 33 34 35 36 37 38 39 40 41 42 43 44 45 46 47 48 49 50
000
FTUS44 KHGX 190258 AAB
TAFUTS
TAF AMD
KUTS 190258Z 1903/1924 32004KT 3SM BR OVC004
      TEMPO 1903/1904 1SM BR OVC002
     FM190400 30004KT 6SM BR VCSH OVC004
     FM190900 29004KT 4SM SHRA BR VCTS BKN004 OVC015CB
     FM191500 27004KT P6SM BKN015 BKN050
     FM191900 20006KT P6SM SCT025=

USA.gov is the U.S. government's official web portal to all federal, state and local government web resources and services.